sensor_id;sensor_type;location;lat;lon;timestamp;pressure;altitude;pressure_sealevel;temperature;humidity
33554;BME280;19885;42.208;24.952;2023-04-21T00:02:21;99415.44;;;13.09;95.76
33554;BME280;19885;42.208;24.952;2023-04-21T00:04:46;99391.25;;;12.85;96.74
33554;BME280;19885;42.208;24.952;2023-04-21T00:07:14;99399.19;;;12.76;97.49
33554;BME280;19885;42.208;24.952;2023-04-21T00:09:40;99402.56;;;12.87;96.12
33554;BME280;19885;42.208;24.952;2023-04-21T00:12:06;99380.19;;;12.59;96.55
33554;BME280;19885;42.208;24.952;2023-04-21T00:14:31;99341.16;;;12.38;96.76
33554;BME280;19885;42.208;24.952;2023-04-21T00:16:57;99398.38;;;12.68;97.02
33554;BME280;19885;42.208;24.952;2023-04-21T00:19:24;99407.22;;;12.55;96.53
33554;BME280;19885;42.208;24.952;2023-04-21T00:21:50;99408.03;;;12.65;96.05
33554;BME280;19885;42.208;24.952;2023-04-21T00:24:16;99393.34;;;12.47;96.00
33554;BME280;19885;42.208;24.952;2023-04-21T00:26:41;99407.34;;;12.39;96.90
33554;BME280;19885;42.208;24.952;2023-04-21T00:29:07;99377.94;;;12.17;96.50
33554;BME280;19885;42.208;24.952;2023-04-21T00:31:32;99392.63;;;12.33;97.45
33554;BME280;19885;42.208;24.952;2023-04-21T00:33:58;99409.09;;;12.38;96.06
33554;BME280;19885;42.208;24.952;2023-04-21T00:36:23;99373.53;;;12.22;95.78
33554;BME280;19885;42.208;24.952;2023-04-21T00:38:51;99406.47;;;12.41;95.58
33554;BME280;19885;42.208;24.952;2023-04-21T00:41:16;99323.31;;;11.88;95.91
33554;BME280;19885;42.208;24.952;2023-04-21T00:46:29;99382.31;;;12.15;95.33
33554;BME280;19885;42.208;24.952;2023-04-21T00:48:55;99402.31;;;12.16;96.35
33554;BME280;19885;42.208;24.952;2023-04-21T00:51:21;99388.44;;;12.12;96.83
33554;BME280;19885;42.208;24.952;2023-04-21T00:53:47;99382.34;;;12.07;96.95
33554;BME280;19885;42.208;24.952;2023-04-21T00:56:13;99387.59;;;12.07;96.58
33554;BME280;19885;42.208;24.952;2023-04-21T00:58:42;99387.56;;;12.10;96.58
33554;BME280;19885;42.208;24.952;2023-04-21T01:01:09;99303.47;;;11.59;96.85
33554;BME280;19885;42.208;24.952;2023-04-21T01:03:35;99374.63;;;11.97;96.35
33554;BME280;19885;42.208;24.952;2023-04-21T01:06:01;99377.13;;;12.07;96.60
33554;BME280;19885;42.208;24.952;2023-04-21T01:08:26;99380.66;;;12.03;96.78
33554;BME280;19885;42.208;24.952;2023-04-21T01:10:52;99373.75;;;11.93;97.67
33554;BME280;19885;42.208;24.952;2023-04-21T01:13:20;99360.75;;;11.87;97.12
33554;BME280;19885;42.208;24.952;2023-04-21T01:15:47;99369.25;;;12.12;95.45
33554;BME280;19885;42.208;24.952;2023-04-21T01:18:13;99350.22;;;11.98;94.84
33554;BME280;19885;42.208;24.952;2023-04-21T01:20:39;99376.31;;;11.98;95.31
33554;BME280;19885;42.208;24.952;2023-04-21T01:23:04;99369.41;;;11.94;95.05
33554;BME280;19885;42.208;24.952;2023-04-21T01:25:31;99366.91;;;11.79;95.71
33554;BME280;19885;42.208;24.952;2023-04-21T01:27:57;99352.16;;;11.72;96.30
33554;BME280;19885;42.208;24.952;2023-04-21T01:30:23;99369.56;;;11.64;95.85
33554;BME280;19885;42.208;24.952;2023-04-21T01:32:48;99373.91;;;11.68;95.32
33554;BME280;19885;42.208;24.952;2023-04-21T01:35:14;99379.16;;;11.60;95.73
33554;BME280;19885;42.208;24.952;2023-04-21T01:37:39;99347.03;;;11.46;96.55
33554;BME280;19885;42.208;24.952;2023-04-21T01:40:06;99370.50;;;11.49;97.17
33554;BME280;19885;42.208;24.952;2023-04-21T01:42:36;99381.78;;;11.49;96.98
33554;BME280;19885;42.208;24.952;2023-04-21T01:45:02;99371.41;;;11.43;95.83
33554;BME280;19885;42.208;24.952;2023-04-21T01:47:28;99380.09;;;11.44;95.32
33554;BME280;19885;42.208;24.952;2023-04-21T01:49:53;99369.72;;;11.24;95.84
33554;BME280;19885;42.208;24.952;2023-04-21T01:52:19;99370.63;;;11.26;96.52
33554;BME280;19885;42.208;24.952;2023-04-21T01:54:45;99380.16;;;11.35;96.67
33554;BME280;19885;42.208;24.952;2023-04-21T01:57:11;99334.16;;;11.17;95.50
33554;BME280;19885;42.208;24.952;2023-04-21T01:59:36;99387.94;;;11.44;95.57
33554;BME280;19885;42.208;24.952;2023-04-21T02:02:02;99312.50;;;10.96;95.69
33554;BME280;19885;42.208;24.952;2023-04-21T02:04:28;99388.88;;;11.20;95.45
33554;BME280;19885;42.208;24.952;2023-04-21T02:06:53;99379.31;;;11.25;95.36
33554;BME280;19885;42.208;24.952;2023-04-21T02:09:19;99389.75;;;11.21;95.91
33554;BME280;19885;42.208;24.952;2023-04-21T02:11:44;99388.03;;;11.14;94.79
33554;BME280;19885;42.208;24.952;2023-04-21T02:14:10;99365.53;;;10.90;96.46
33554;BME280;19885;42.208;24.952;2023-04-21T02:16:35;99366.34;;;11.03;95.79
33554;BME280;19885;42.208;24.952;2023-04-21T02:19:01;99366.34;;;11.04;95.08
33554;BME280;19885;42.208;24.952;2023-04-21T02:21:27;99370.75;;;10.87;95.09
33554;BME280;19885;42.208;24.952;2023-04-21T02:23:53;99360.31;;;10.95;95.72
33554;BME280;19885;42.208;24.952;2023-04-21T02:26:19;99371.69;;;10.23;96.90
33554;BME280;19885;42.208;24.952;2023-04-21T02:28:45;99276.22;;;9.88;98.03
33554;BME280;19885;42.208;24.952;2023-04-21T02:31:11;99364.69;;;9.87;99.51
33554;BME280;19885;42.208;24.952;2023-04-21T02:33:36;99360.41;;;10.25;97.70
33554;BME280;19885;42.208;24.952;2023-04-21T02:36:02;99365.63;;;10.15;98.04
33554;BME280;19885;42.208;24.952;2023-04-21T02:38:28;99368.22;;;10.27;99.67
33554;BME280;19885;42.208;24.952;2023-04-21T02:40:56;99358.66;;;10.36;98.98
33554;BME280;19885;42.208;24.952;2023-04-21T02:43:21;99379.47;;;9.98;98.38
33554;BME280;19885;42.208;24.952;2023-04-21T02:45:48;99373.41;;;10.39;98.64
33554;BME280;19885;42.208;24.952;2023-04-21T02:48:13;99377.78;;;10.40;97.63
33554;BME280;19885;42.208;24.952;2023-04-21T02:50:41;99374.22;;;9.70;98.66
33554;BME280;19885;42.208;24.952;2023-04-21T02:53:06;99378.53;;;9.63;100.00
33554;BME280;19885;42.208;24.952;2023-04-21T02:55:32;99375.13;;;10.03;100.00
33554;BME280;19885;42.208;24.952;2023-04-21T02:57:58;99386.44;;;10.30;98.28
33554;BME280;19885;42.208;24.952;2023-04-21T03:00:23;99385.59;;;10.41;97.69
33554;BME280;19885;42.208;24.952;2023-04-21T03:02:50;99393.38;;;10.43;97.95
33554;BME280;19885;42.208;24.952;2023-04-21T03:05:17;99389.91;;;10.23;99.85
33554;BME280;19885;42.208;24.952;2023-04-21T03:07:46;99402.03;;;10.01;100.00
33554;BME280;19885;42.208;24.952;2023-04-21T03:10:12;99399.47;;;10.39;100.00
33554;BME280;19885;42.208;24.952;2023-04-21T03:12:37;99397.75;;;10.29;99.67
33554;BME280;19885;42.208;24.952;2023-04-21T03:15:03;99376.03;;;10.21;99.79
33554;BME280;19885;42.208;24.952;2023-04-21T03:17:29;99372.50;;;9.93;98.46
33554;BME280;19885;42.208;24.952;2023-04-21T03:19:54;99402.91;;;10.03;99.33
33554;BME280;19885;42.208;24.952;2023-04-21T03:22:20;99401.22;;;10.37;97.73
33554;BME280;19885;42.208;24.952;2023-04-21T03:24:45;99399.44;;;10.05;99.89
33554;BME280;19885;42.208;24.952;2023-04-21T03:27:11;99376.84;;;9.89;99.40
33554;BME280;19885;42.208;24.952;2023-04-21T03:29:37;99376.84;;;9.89;97.84
33554;BME280;19885;42.208;24.952;2023-04-21T03:32:02;99399.41;;;10.08;97.08
33554;BME280;19885;42.208;24.952;2023-04-21T03:34:28;99390.75;;;10.10;95.98
33554;BME280;19885;42.208;24.952;2023-04-21T03:36:53;99394.22;;;10.07;96.82
33554;BME280;19885;42.208;24.952;2023-04-21T03:39:20;99344.72;;;9.69;98.74
33554;BME280;19885;42.208;24.952;2023-04-21T03:41:45;99382.00;;;9.62;98.75
33554;BME280;19885;42.208;24.952;2023-04-21T03:44:11;99397.28;;;8.87;100.00
33554;BME280;19885;42.208;24.952;2023-04-21T03:46:37;99402.59;;;9.09;100.00
33554;BME280;19885;42.208;24.952;2023-04-21T03:49:02;99406.84;;;8.95;100.00
33554;BME280;19885;42.208;24.952;2023-04-21T03:51:28;99401.00;;;9.36;100.00
33554;BME280;19885;42.208;24.952;2023-04-21T03:53:53;99409.69;;;9.48;100.00
33554;BME280;19885;42.208;24.952;2023-04-21T03:56:18;99408.88;;;9.70;100.00
33554;BME280;19885;42.208;24.952;2023-04-21T03:58:44;99412.31;;;9.54;100.00
33554;BME280;19885;42.208;24.952;2023-04-21T04:01:10;99414.91;;;9.59;100.00
33554;BME280;19885;42.208;24.952;2023-04-21T04:03:35;99395.88;;;9.63;100.00
33554;BME280;19885;42.208;24.952;2023-04-21T04:06:01;99416.72;;;9.84;100.00
33554;BME280;19885;42.208;24.952;2023-04-21T04:08:28;99415.81;;;9.62;100.00
33554;BME280;19885;42.208;24.952;2023-04-21T04:10:55;99420.16;;;9.65;100.00
33554;BME280;19885;42.208;24.952;2023-04-21T07:01:54;99322.41;;;15.89;74.91
33554;BME280;19885;42.208;24.952;2023-04-21T07:04:20;99394.25;;;16.24;73.47
33554;BME280;19885;42.208;24.952;2023-04-21T07:06:45;99409.84;;;16.32;74.33
33554;BME280;19885;42.208;24.952;2023-04-21T07:09:11;99390.47;;;16.36;73.22
33554;BME280;19885;42.208;24.952;2023-04-21T07:11:37;99394.31;;;16.23;72.40
33554;BME280;19885;42.208;24.952;2023-04-21T07:14:02;99404.59;;;16.32;72.70
33554;BME280;19885;42.208;24.952;2023-04-21T07:16:28;99405.69;;;16.60;74.09
33554;BME280;19885;42.208;24.952;2023-04-21T07:18:54;99415.06;;;17.04;71.97
33554;BME280;19885;42.208;24.952;2023-04-21T07:21:19;99405.06;;;17.17;68.22
33554;BME280;19885;42.208;24.952;2023-04-21T07:23:45;99401.75;;;17.41;68.75
33554;BME280;19885;42.208;24.952;2023-04-21T07:26:10;99387.94;;;17.33;69.69
33554;BME280;19885;42.208;24.952;2023-04-21T07:28:37;99392.34;;;17.32;69.23
33554;BME280;19885;42.208;24.952;2023-04-21T07:31:03;99379.56;;;17.19;71.65
33554;BME280;19885;42.208;24.952;2023-04-21T07:33:28;99323.41;;;16.87;70.20
33554;BME280;19885;42.208;24.952;2023-04-21T07:35:54;99389.78;;;17.29;70.24
33554;BME280;19885;42.208;24.952;2023-04-21T07:38:20;99392.28;;;17.35;69.70
33554;BME280;19885;42.208;24.952;2023-04-21T07:40:45;99385.56;;;17.56;68.22
33554;BME280;19885;42.208;24.952;2023-04-21T07:43:11;99376.00;;;17.52;68.00
33554;BME280;19885;42.208;24.952;2023-04-21T07:45:36;99386.03;;;17.68;71.66
33554;BME280;19885;42.208;24.952;2023-04-21T07:48:01;99383.00;;;17.82;68.28
33554;BME280;19885;42.208;24.952;2023-04-21T07:50:27;99388.41;;;17.77;68.92
33554;BME280;19885;42.208;24.952;2023-04-21T07:52:52;99325.38;;;17.70;68.37
33554;BME280;19885;42.208;24.952;2023-04-21T07:55:18;99378.19;;;18.22;66.77
33554;BME280;19885;42.208;24.952;2023-04-21T07:57:44;99366.59;;;18.00;63.97
33554;BME280;19885;42.208;24.952;2023-04-21T08:00:10;99392.31;;;18.21;65.04
33554;BME280;19885;42.208;24.952;2023-04-21T08:02:36;99391.97;;;18.60;65.41
33554;BME280;19885;42.208;24.952;2023-04-21T08:05:02;99376.38;;;18.52;63.51
33554;BME280;19885;42.208;24.952;2023-04-21T08:07:27;99383.81;;;18.66;63.26
33554;BME280;19885;42.208;24.952;2023-04-21T08:09:53;99385.03;;;18.82;62.17
33554;BME280;19885;42.208;24.952;2023-04-21T08:12:18;99381.59;;;18.80;62.78
33554;BME280;19885;42.208;24.952;2023-04-21T08:14:44;99369.50;;;18.73;63.71
33554;BME280;19885;42.208;24.952;2023-04-21T08:17:09;99386.44;;;18.92;63.60
33554;BME280;19885;42.208;24.952;2023-04-21T08:19:35;99383.19;;;19.08;62.02
33554;BME280;19885;42.208;24.952;2023-04-21T08:22:00;99381.75;;;19.00;60.77
33554;BME280;19885;42.208;24.952;2023-04-21T08:24:26;99376.03;;;18.87;59.50
33554;BME280;19885;42.208;24.952;2023-04-21T08:26:52;99382.28;;;18.85;60.16
33554;BME280;19885;42.208;24.952;2023-04-21T08:29:17;99374.47;;;18.82;59.36
33554;BME280;19885;42.208;24.952;2023-04-21T08:31:43;99387.97;;;18.99;59.81
33554;BME280;19885;42.208;24.952;2023-04-21T08:34:08;99378.69;;;19.12;60.87
33554;BME280;19885;42.208;24.952;2023-04-21T08:36:34;99370.38;;;19.22;60.46
33554;BME280;19885;42.208;24.952;2023-04-21T08:39:00;99368.75;;;19.43;62.21
33554;BME280;19885;42.208;24.952;2023-04-21T08:41:25;99376.50;;;19.48;60.33
33554;BME280;19885;42.208;24.952;2023-04-21T08:43:51;99352.88;;;19.43;58.41
33554;BME280;19885;42.208;24.952;2023-04-21T08:46:17;99372.13;;;19.70;60.79
33554;BME280;19885;42.208;24.952;2023-04-21T08:48:45;99367.34;;;19.79;55.83
33554;BME280;19885;42.208;24.952;2023-04-21T08:51:14;99345.66;;;19.71;56.63
33554;BME280;19885;42.208;24.952;2023-04-21T08:53:42;99371.81;;;20.24;56.83
33554;BME280;19885;42.208;24.952;2023-04-21T08:56:08;99369.25;;;20.21;55.05
33554;BME280;19885;42.208;24.952;2023-04-21T08:58:34;99360.00;;;20.31;56.12
33554;BME280;19885;42.208;24.952;2023-04-21T09:00:59;99363.38;;;20.56;55.90
33554;BME280;19885;42.208;24.952;2023-04-21T09:03:26;99367.47;;;20.43;51.81
33554;BME280;19885;42.208;24.952;2023-04-21T09:06:06;99362.84;;;20.48;53.49
33554;BME280;19885;42.208;24.952;2023-04-21T09:08:35;99362.47;;;20.57;51.69
33554;BME280;19885;42.208;24.952;2023-04-21T09:11:01;99301.00;;;20.29;51.46
33554;BME280;19885;42.208;24.952;2023-04-21T09:13:31;99352.59;;;20.60;52.81
33554;BME280;19885;42.208;24.952;2023-04-21T09:15:57;99353.63;;;20.98;55.71
33554;BME280;19885;42.208;24.952;2023-04-21T09:18:25;99258.69;;;20.88;51.17
33554;BME280;19885;42.208;24.952;2023-04-21T09:21:10;99283.84;;;21.18;51.22
33554;BME280;19885;42.208;24.952;2023-04-21T09:26:10;99276.03;;;21.15;51.60
33554;BME280;19885;42.208;24.952;2023-04-21T09:28:36;99330.75;;;21.73;50.24
33554;BME280;19885;42.208;24.952;2023-04-21T09:31:15;99331.22;;;21.63;50.44
33554;BME280;19885;42.208;24.952;2023-04-21T09:36:20;99330.31;;;21.64;50.79
33554;BME280;19885;42.208;24.952;2023-04-21T09:38:55;99326.66;;;21.66;48.59
33554;BME280;19885;42.208;24.952;2023-04-21T09:41:22;99314.91;;;21.90;49.58
33554;BME280;19885;42.208;24.952;2023-04-21T09:43:48;99318.06;;;21.98;46.46
33554;BME280;19885;42.208;24.952;2023-04-21T09:46:17;99321.47;;;22.19;47.84
33554;BME280;19885;42.208;24.952;2023-04-21T09:48:43;99310.50;;;22.08;47.56
33554;BME280;19885;42.208;24.952;2023-04-21T09:51:14;99324.91;;;22.21;48.60
33554;BME280;19885;42.208;24.952;2023-04-21T09:53:40;99317.56;;;22.26;48.69
33554;BME280;19885;42.208;24.952;2023-04-21T09:56:11;99307.34;;;22.36;49.72
33554;BME280;19885;42.208;24.952;2023-04-21T09:58:43;99309.06;;;22.37;47.04
33554;BME280;19885;42.208;24.952;2023-04-21T10:01:11;99245.63;;;22.14;47.61
33554;BME280;19885;42.208;24.952;2023-04-21T10:03:38;99290.25;;;22.58;49.84
33554;BME280;19885;42.208;24.952;2023-04-21T10:06:05;99258.69;;;22.69;48.77
33554;BME280;19885;42.208;24.952;2023-04-21T10:08:31;99303.22;;;22.99;44.40
33554;BME280;19885;42.208;24.952;2023-04-21T10:10:58;99296.13;;;23.15;43.27
33554;BME280;19885;42.208;24.952;2023-04-21T10:13:25;99287.50;;;23.44;43.96
33554;BME280;19885;42.208;24.952;2023-04-21T10:16:01;99291.94;;;23.44;44.08
33554;BME280;19885;42.208;24.952;2023-04-21T10:18:27;99292.56;;;23.64;45.12
33554;BME280;19885;42.208;24.952;2023-04-21T10:21:00;99274.34;;;23.88;42.60
33554;BME280;19885;42.208;24.952;2023-04-21T10:23:30;99281.91;;;23.64;44.34
33554;BME280;19885;42.208;24.952;2023-04-21T10:26:06;99291.28;;;23.87;42.28
33554;BME280;19885;42.208;24.952;2023-04-21T10:37:28;99280.00;;;23.35;38.91
33554;BME280;19885;42.208;24.952;2023-04-21T10:39:45;99282.19;;;22.26;43.71
33554;BME280;19885;42.208;24.952;2023-04-21T10:49:57;99253.47;;;22.17;44.79
33554;BME280;19885;42.208;24.952;2023-04-21T10:52:31;99274.28;;;22.07;45.02
33554;BME280;19885;42.208;24.952;2023-04-21T10:57:22;99276.91;;;21.34;48.67
33554;BME280;19885;42.208;24.952;2023-04-21T10:59:48;99280.31;;;21.17;48.00
33554;BME280;19885;42.208;24.952;2023-04-21T11:02:15;99266.03;;;20.63;45.97
33554;BME280;19885;42.208;24.952;2023-04-21T11:04:42;99280.19;;;20.61;47.04
33554;BME280;19885;42.208;24.952;2023-04-21T11:07:15;99263.69;;;20.35;48.41
33554;BME280;19885;42.208;24.952;2023-04-21T11:09:42;99269.06;;;20.12;48.45
33554;BME280;19885;42.208;24.952;2023-04-21T11:12:13;99265.00;;;20.03;49.53
33554;BME280;19885;42.208;24.952;2023-04-21T11:14:42;99274.50;;;19.87;48.61
33554;BME280;19885;42.208;24.952;2023-04-21T11:17:12;99252.84;;;19.77;46.49
33554;BME280;19885;42.208;24.952;2023-04-21T11:19:38;99267.63;;;19.83;47.81
33554;BME280;19885;42.208;24.952;2023-04-21T11:22:04;99262.63;;;19.75;49.58
33554;BME280;19885;42.208;24.952;2023-04-21T11:24:32;99262.06;;;19.89;49.49
33554;BME280;19885;42.208;24.952;2023-04-21T11:26:58;99251.00;;;19.79;48.04
33554;BME280;19885;42.208;24.952;2023-04-21T11:29:26;99254.44;;;19.81;48.70
33554;BME280;19885;42.208;24.952;2023-04-21T11:31:53;99268.38;;;20.07;47.37
33554;BME280;19885;42.208;24.952;2023-04-21T11:34:21;99268.44;;;20.27;45.48
33554;BME280;19885;42.208;24.952;2023-04-21T11:36:49;99245.19;;;20.35;46.08
33554;BME280;19885;42.208;24.952;2023-04-21T11:39:16;99265.75;;;20.69;45.63
33554;BME280;19885;42.208;24.952;2023-04-21T11:41:46;99267.25;;;20.74;45.00
33554;BME280;19885;42.208;24.952;2023-04-21T11:44:16;99260.09;;;20.96;44.06
33554;BME280;19885;42.208;24.952;2023-04-21T11:46:54;99200.47;;;20.47;46.89
33554;BME280;19885;42.208;24.952;2023-04-21T11:49:24;99247.25;;;20.87;46.72
33554;BME280;19885;42.208;24.952;2023-04-21T11:51:50;99252.78;;;21.01;46.23
33554;BME280;19885;42.208;24.952;2023-04-21T11:54:17;99266.59;;;21.09;46.45
33554;BME280;19885;42.208;24.952;2023-04-21T11:56:46;99254.69;;;21.37;48.56
33554;BME280;19885;42.208;24.952;2023-04-21T11:59:13;99269.97;;;21.69;48.01
33554;BME280;19885;42.208;24.952;2023-04-21T12:01:46;99265.50;;;22.24;48.45
33554;BME280;19885;42.208;24.952;2023-04-21T12:04:22;99265.09;;;22.48;46.87
33554;BME280;19885;42.208;24.952;2023-04-21T12:07:00;99275.41;;;22.89;45.34
33554;BME280;19885;42.208;24.952;2023-04-21T12:09:27;99259.78;;;22.48;43.14
33554;BME280;19885;42.208;24.952;2023-04-21T12:11:55;99254.25;;;22.19;44.73
33554;BME280;19885;42.208;24.952;2023-04-21T12:14:24;99263.97;;;22.35;44.97
33554;BME280;19885;42.208;24.952;2023-04-21T12:16:55;99257.19;;;22.47;43.82
33554;BME280;19885;42.208;24.952;2023-04-21T12:19:34;99244.16;;;22.59;45.34
33554;BME280;19885;42.208;24.952;2023-04-21T12:22:00;99247.97;;;22.88;45.32
33554;BME280;19885;42.208;24.952;2023-04-21T12:24:25;99242.69;;;23.04;43.18
33554;BME280;19885;42.208;24.952;2023-04-21T12:26:51;99238.94;;;23.08;42.61
33554;BME280;19885;42.208;24.952;2023-04-21T12:29:17;99238.34;;;22.86;43.14
33554;BME280;19885;42.208;24.952;2023-04-21T12:31:42;99238.53;;;22.83;43.18
33554;BME280;19885;42.208;24.952;2023-04-21T12:34:07;99189.81;;;22.32;43.38
33554;BME280;19885;42.208;24.952;2023-04-21T12:36:34;99235.72;;;22.34;43.89
33554;BME280;19885;42.208;24.952;2023-04-21T12:38:59;99242.13;;;22.47;44.39
33554;BME280;19885;42.208;24.952;2023-04-21T12:41:25;99231.16;;;22.53;43.74
33554;BME280;19885;42.208;24.952;2023-04-21T12:43:50;99233.53;;;22.77;43.74
33554;BME280;19885;42.208;24.952;2023-04-21T12:46:16;99235.91;;;22.98;42.13
33554;BME280;19885;42.208;24.952;2023-04-21T12:48:42;99233.00;;;23.03;41.40
33554;BME280;19885;42.208;24.952;2023-04-21T12:51:07;99239.13;;;22.53;41.69
33554;BME280;19885;42.208;24.952;2023-04-21T12:53:32;99242.66;;;22.02;42.39
33554;BME280;19885;42.208;24.952;2023-04-21T12:55:58;99240.56;;;21.92;45.08
33554;BME280;19885;42.208;24.952;2023-04-21T12:58:23;99236.13;;;21.74;45.69
33554;BME280;19885;42.208;24.952;2023-04-21T13:00:49;99217.38;;;21.22;44.58
33554;BME280;19885;42.208;24.952;2023-04-21T13:03:14;99235.72;;;21.27;46.60
33554;BME280;19885;42.208;24.952;2023-04-21T13:05:40;99235.84;;;21.05;44.46
33554;BME280;19885;42.208;24.952;2023-04-21T13:08:05;99217.69;;;20.96;45.14
33554;BME280;19885;42.208;24.952;2023-04-21T13:10:31;99233.03;;;21.08;45.82
33554;BME280;19885;42.208;24.952;2023-04-21T13:12:56;99227.34;;;20.97;45.31
33554;BME280;19885;42.208;24.952;2023-04-21T13:15:22;99234.34;;;21.18;43.63
33554;BME280;19885;42.208;24.952;2023-04-21T13:17:47;99232.72;;;21.35;45.27
33554;BME280;19885;42.208;24.952;2023-04-21T13:20:13;99234.31;;;21.56;45.04
33554;BME280;19885;42.208;24.952;2023-04-21T13:22:38;99237.03;;;21.91;45.30
33554;BME280;19885;42.208;24.952;2023-04-21T13:25:04;99235.94;;;22.13;45.89
33554;BME280;19885;42.208;24.952;2023-04-21T13:27:29;99215.56;;;22.13;45.99
33554;BME280;19885;42.208;24.952;2023-04-21T13:29:56;99219.47;;;22.06;44.70
33554;BME280;19885;42.208;24.952;2023-04-21T13:32:22;99217.34;;;22.13;44.08
33554;BME280;19885;42.208;24.952;2023-04-21T13:34:47;99220.38;;;21.88;41.67
33554;BME280;19885;42.208;24.952;2023-04-21T13:37:13;99206.94;;;21.74;43.76
33554;BME280;19885;42.208;24.952;2023-04-21T13:39:40;99220.38;;;21.88;44.74
33554;BME280;19885;42.208;24.952;2023-04-21T13:42:06;99202.22;;;21.97;41.67
33554;BME280;19885;42.208;24.952;2023-04-21T13:44:31;99211.50;;;21.89;42.71
33554;BME280;19885;42.208;24.952;2023-04-21T13:46:58;99210.19;;;21.79;43.69
33554;BME280;19885;42.208;24.952;2023-04-21T13:49:23;99217.97;;;21.65;46.32
33554;BME280;19885;42.208;24.952;2023-04-21T13:51:49;99212.31;;;21.54;44.35
33554;BME280;19885;42.208;24.952;2023-04-21T13:54:14;99211.75;;;21.66;45.06
33554;BME280;19885;42.208;24.952;2023-04-21T13:56:40;99216.22;;;22.01;44.66
33554;BME280;19885;42.208;24.952;2023-04-21T13:59:05;99209.56;;;22.27;43.77
33554;BME280;19885;42.208;24.952;2023-04-21T14:01:31;99212.28;;;22.42;44.71
33554;BME280;19885;42.208;24.952;2023-04-21T14:03:56;99217.59;;;22.59;43.87
33554;BME280;19885;42.208;24.952;2023-04-21T14:06:22;99202.84;;;22.37;42.67
33554;BME280;19885;42.208;24.952;2023-04-21T14:08:47;99202.19;;;22.49;40.83
33554;BME280;19885;42.208;24.952;2023-04-21T14:11:13;99211.06;;;22.32;41.67
33554;BME280;19885;42.208;24.952;2023-04-21T14:13:38;99202.31;;;22.30;41.26
33554;BME280;19885;42.208;24.952;2023-04-21T14:16:04;99197.94;;;22.46;41.97
33554;BME280;19885;42.208;24.952;2023-04-21T14:18:29;99164.84;;;22.02;40.54
33554;BME280;19885;42.208;24.952;2023-04-21T14:20:55;99213.38;;;22.38;41.46
33554;BME280;19885;42.208;24.952;2023-04-21T14:23:20;99205.25;;;22.24;43.20
33554;BME280;19885;42.208;24.952;2023-04-21T14:25:45;99173.69;;;22.35;45.16
33554;BME280;19885;42.208;24.952;2023-04-21T14:28:11;99197.44;;;22.55;44.73
33554;BME280;19885;42.208;24.952;2023-04-21T14:30:36;99194.41;;;22.63;44.64
33554;BME280;19885;42.208;24.952;2023-04-21T14:33:03;99191.19;;;22.56;44.87
33554;BME280;19885;42.208;24.952;2023-04-21T14:35:29;99202.13;;;22.67;45.34
33554;BME280;19885;42.208;24.952;2023-04-21T14:37:56;99174.09;;;22.62;44.65
33554;BME280;19885;42.208;24.952;2023-04-21T14:40:21;99183.75;;;22.80;41.99
33554;BME280;19885;42.208;24.952;2023-04-21T14:42:47;99198.41;;;22.87;41.35
33554;BME280;19885;42.208;24.952;2023-04-21T14:45:12;99203.13;;;22.98;40.39
33554;BME280;19885;42.208;24.952;2023-04-21T14:47:38;99214.84;;;22.78;41.89
33554;BME280;19885;42.208;24.952;2023-04-21T14:50:04;99200.34;;;22.68;42.89
33554;BME280;19885;42.208;24.952;2023-04-21T14:52:30;99189.72;;;22.51;40.13
33554;BME280;19885;42.208;24.952;2023-04-21T14:54:56;99207.25;;;22.53;40.41
33554;BME280;19885;42.208;24.952;2023-04-21T14:57:22;99199.94;;;22.76;40.83
33554;BME280;19885;42.208;24.952;2023-04-21T14:59:52;99152.53;;;22.51;40.59
33554;BME280;19885;42.208;24.952;2023-04-21T15:02:18;99200.56;;;22.63;37.68
33554;BME280;19885;42.208;24.952;2023-04-21T15:04:44;99200.81;;;22.76;40.33
33554;BME280;19885;42.208;24.952;2023-04-21T15:07:10;99199.06;;;22.58;43.54
33554;BME280;19885;42.208;24.952;2023-04-21T15:09:35;99206.81;;;22.45;43.42
33554;BME280;19885;42.208;24.952;2023-04-21T15:12:01;99219.00;;;22.15;42.53
33554;BME280;19885;42.208;24.952;2023-04-21T15:14:26;99235.94;;;21.77;45.87
33554;BME280;19885;42.208;24.952;2023-04-21T15:16:52;99238.44;;;21.25;47.34
33554;BME280;19885;42.208;24.952;2023-04-21T15:19:17;99173.03;;;20.30;50.37
33554;BME280;19885;42.208;24.952;2023-04-21T15:21:43;99241.78;;;20.51;52.00
33554;BME280;19885;42.208;24.952;2023-04-21T15:24:08;99236.28;;;20.36;52.59
33554;BME280;19885;42.208;24.952;2023-04-21T15:26:34;99252.63;;;20.25;50.69
33554;BME280;19885;42.208;24.952;2023-04-21T15:29:00;99243.91;;;20.02;51.55
33554;BME280;19885;42.208;24.952;2023-04-21T15:31:25;99242.97;;;20.03;50.34
33554;BME280;19885;42.208;24.952;2023-04-21T15:33:51;99252.59;;;20.05;52.16
33554;BME280;19885;42.208;24.952;2023-04-21T15:36:16;99258.25;;;19.96;52.10
33554;BME280;19885;42.208;24.952;2023-04-21T15:38:42;99264.22;;;20.01;54.09
33554;BME280;19885;42.208;24.952;2023-04-21T15:41:09;99272.25;;;19.76;53.07
33554;BME280;19885;42.208;24.952;2023-04-21T15:43:34;99253.25;;;19.45;53.66
33554;BME280;19885;42.208;24.952;2023-04-21T15:46:00;99266.75;;;19.38;52.47
33554;BME280;19885;42.208;24.952;2023-04-21T15:48:25;99274.75;;;19.36;54.72
33554;BME280;19885;42.208;24.952;2023-04-21T15:50:51;99276.34;;;19.17;54.87
33554;BME280;19885;42.208;24.952;2023-04-21T15:53:17;99222.38;;;18.78;56.03
33554;BME280;19885;42.208;24.952;2023-04-21T15:55:43;99279.78;;;19.19;57.00
33554;BME280;19885;42.208;24.952;2023-04-21T15:58:08;99263.94;;;19.19;57.20
33554;BME280;19885;42.208;24.952;2023-04-21T16:00:40;99253.38;;;18.96;60.28
33554;BME280;19885;42.208;24.952;2023-04-21T16:03:06;99277.69;;;19.04;62.07